Latest Weather Observations for Holsworthy (Defence)

IDN60901

Issued at 8:31 pm EST Sunday 16 June 2019 (issued every 10 minutes, with the page automatically refreshed every 10 minutes)

About weather observations | Map of Sydney area stations | Latest observations for Sydney area | Other Formats
Station Details ID: 068263 Name: HOLSWORTHY DEFENCE AWS Lat: -34.08 Lon: 150.90 Height: 165.0 m
Data from the previous 72 hours. | See also: Recent months at Holsworthy (Defence)
Date/Time
EST
Temp
°C
App
Temp
°C
Dew
Point
°C
Rel
Hum
%
Delta-T
°C
Wind Press
QNH
hPa
Press
MSL
hPa
Rain since
9am
mm
Dir  Spd
km/h
Gust
km/h
Spd
kts
Gust
kts
16/08:30pm 11.2 10.1 10.6 96 0.3 SSW 7 13 4 7 - - 33.2
16/08:00pm 11.5 10.7 10.9 96 0.3 WSW 6 9 3 5 - - 31.6
16/07:30pm 11.6 10.8 11.0 96 0.3 W 6 7 3 4 - - 29.6
16/07:00pm 11.6 10.6 11.0 96 0.3 SSW 7 11 4 6 - - 28.0
16/06:30pm 11.7 10.9 11.1 96 0.3 S 6 7 3 4 - - 27.0
16/06:00pm 11.8 11.0 11.2 96 0.3 SSW 6 9 3 5 - - 26.6
16/05:30pm 11.7 11.2 10.9 95 0.4 S 4 9 2 5 - - 25.4
16/05:00pm 11.9 11.6 11.3 96 0.3 SSE 4 6 2 3 - - 22.2
16/04:30pm 12.0 11.7 11.4 96 0.3 SSE 4 6 2 3 - - 19.8
16/04:00pm 12.0 11.1 11.4 96 0.3 SSE 7 13 4 7 - - 19.0
16/03:30pm 11.9 10.9 11.1 95 0.4 SSE 7 11 4 6 - - 16.6
16/03:00pm 12.3 10.3 11.4 94 0.5 SSE 13 24 7 13 - - 13.0
16/02:30pm 13.0 11.2 12.1 94 0.5 SSE 13 20 7 11 - - 9.8
16/02:00pm 13.2 12.6 12.3 94 0.5 SSE 7 13 4 7 - - 6.2
16/01:30pm 13.2 12.2 12.3 94 0.5 SSE 9 17 5 9 - - 5.4
16/01:00pm 13.1 12.7 12.3 95 0.4 S 6 13 3 7 - - 5.0
16/12:30pm 12.9 12.4 12.0 94 0.5 S 6 11 3 6 - - 3.0
16/12:00pm 12.9 11.7 11.6 92 0.7 SSE 9 19 5 10 - - 2.0
16/11:30am 13.4 12.7 12.1 92 0.7 SSE 7 13 4 7 - - 1.0
16/11:00am 13.4 11.9 12.0 91 0.8 SSE 11 17 6 9 - - 1.0
16/10:30am 13.0 11.5 11.9 93 0.6 SSE 11 20 6 11 - - 0.6
16/10:00am 12.7 11.1 11.6 93 0.6 SSE 11 19 6 10 - - 0.4
16/09:30am 12.4 11.2 11.6 95 0.4 SSE 9 17 5 9 - - 0.4
16/09:00am 12.1 11.4 11.5 96 0.3 S 6 9 3 5 - - 6.4
16/08:30am 11.7 11.3 11.2 97 0.3 SSW 4 7 2 4 - - 6.2
16/08:00am 11.4 11.7 10.9 97 0.3 CALM 0 0 0 0 - - 6.2
16/07:30am 11.4 10.9 10.9 97 0.3 N 4 6 2 3 - - 5.8
16/07:00am 11.5 11.1 11.0 97 0.3 SSW 4 6 2 3 - - 5.2
16/06:30am 11.5 10.7 11.0 97 0.3 SSW 6 11 3 6 - - 5.0
16/06:00am 11.4 10.6 10.9 97 0.3 SSE 6 9 3 5 - - 4.6
16/05:30am 11.2 10.1 10.7 97 0.3 SSW 7 13 4 7 - - 4.4
16/05:00am 11.2 11.1 10.7 97 0.3 SSW 2 6 1 3 - - 4.4
16/04:30am 11.2 10.3 10.7 97 0.3 S 6 11 3 6 - - 4.0
16/04:00am 10.9 10.7 10.3 96 0.3 SW 2 4 1 2 - - 1.6
16/03:30am 10.7 9.6 9.9 95 0.4 S 6 7 3 4 - - 1.6
16/03:00am 10.8 9.6 9.7 93 0.6 SW 6 9 3 5 - - 1.6
16/02:30am 10.9 10.2 10.0 94 0.5 SW 4 6 2 3 - - 1.4
16/02:00am 10.9 9.8 10.0 94 0.5 WSW 6 7 3 4 - - 1.4
16/01:30am 11.0 9.9 9.9 93 0.6 SSW 6 9 3 5 - - 1.2
16/01:00am 11.0 9.9 9.8 92 0.6 SSW 6 9 3 5 - - 1.2
16/12:30am 11.4 10.7 10.0 91 0.7 SW 4 6 2 3 - - 1.2
16/12:00am 11.4 10.6 9.8 90 0.8 SSW 4 6 2 3 - - 0.8
 
Date/Time
EST
Temp
°C
App
Temp
°C
Dew
Point
°C
Rel
Hum
%
Delta-T
°C
Wind Press
QNH
hPa
Press
MSL
hPa
Rain since
9am
mm
Dir  Spd
km/h
Gust
km/h
Spd
kts
Gust
kts
15/11:30pm 11.9 11.1 9.6 86 1.2 S 4 7 2 4 - - 0.8
15/11:00pm 12.3 11.0 9.9 85 1.2 SSE 7 13 4 7 - - 0.6
15/10:30pm 12.4 11.2 10.3 87 1.1 SSE 7 11 4 6 - - 0.6
15/10:00pm 12.5 11.3 10.2 86 1.2 SSE 7 13 4 7 - - 0.6
15/09:30pm 12.9 11.3 10.3 84 1.4 SSE 9 15 5 8 - - 0.6
15/09:00pm 12.9 10.6 10.3 84 1.4 SSE 13 24 7 13 - - 0.6
15/08:30pm 12.4 11.3 10.6 89 0.9 SSE 7 15 4 8 - - 0.6
15/08:00pm 12.4 11.3 10.5 88 1.0 SSE 7 11 4 6 - - 0.6
15/07:30pm 12.8 10.9 10.5 86 1.2 SE 11 17 6 9 - - 0.6
15/07:00pm 11.6 9.9 10.0 90 0.8 SSE 9 15 5 8 - - 0.2
15/06:30pm 11.4 9.8 8.8 84 1.3 SSE 7 11 4 6 - - 0.0
15/06:00pm 11.3 10.2 8.3 82 1.5 S 4 6 2 3 - - 0.0
15/05:30pm 12.9 11.4 8.6 75 2.2 SSE 6 6 3 3 - - 0.0
15/05:00pm 13.9 13.1 8.3 69 2.8 SW 2 2 1 1 - - 0.0
15/04:30pm 15.3 14.2 8.3 63 3.6 SE 4 6 2 3 - - 0.0
15/04:00pm 16.0 13.8 7.7 58 4.2 SE 9 13 5 7 - - 0.0
15/03:30pm 16.6 14.6 6.4 51 5.0 SE 6 11 3 6 - - 0.0
15/03:00pm 16.8 14.9 6.6 51 5.1 SSE 6 11 3 6 - - 0.0
15/02:30pm 16.7 13.6 5.6 48 5.4 SSE 11 15 6 8 - - 0.0
15/02:00pm 16.4 15.0 5.7 49 5.2 SE 2 6 1 3 - - 0.0
15/01:30pm 17.2 14.8 4.2 42 6.2 SSE 6 15 3 8 - - 0.0
15/01:00pm 18.3 16.5 5.2 42 6.4 W 4 6 2 3 - - 0.0
15/12:30pm 16.1 13.8 4.8 47 5.4 S 6 7 3 4 - - 0.0
15/12:00pm 16.6 14.8 5.3 47 5.5 SW 4 9 2 5 - - 0.0
15/11:30am 16.2 14.2 6.9 54 4.6 SW 7 11 4 6 - - 0.0
15/11:00am 15.9 14.0 7.4 57 4.3 W 7 13 4 7 - - 0.0
15/10:30am 14.5 12.5 7.1 61 3.7 WSW 7 15 4 8 - - 0.0
15/10:00am 13.4 10.8 6.3 62 3.4 SW 9 19 5 10 - - 0.0
15/09:30am 12.5 10.3 6.3 66 3.0 SW 7 15 4 8 - - 0.0
15/09:00am 11.3 8.7 6.0 70 2.5 SW 9 17 5 9 - - 0.0
15/08:30am 10.3 7.6 5.7 73 2.1 SW 9 17 5 9 - - 0.0
15/08:00am 9.2 6.5 5.4 77 1.7 SW 9 19 5 10 - - 0.0
15/07:30am 8.3 5.9 5.1 80 1.4 SW 7 13 4 7 - - 0.0
15/07:00am 8.3 5.4 4.9 79 1.5 SSW 9 13 5 7 - - 0.0
15/06:30am 8.2 5.4 5.0 80 1.4 SW 9 13 5 7 - - 0.0
15/06:00am 8.1 5.7 5.2 82 1.3 SW 7 13 4 7 - - 0.0
15/05:30am 8.4 6.0 5.2 80 1.4 SW 7 9 4 5 - - 0.0
15/05:00am 8.9 6.2 5.5 79 1.6 SSW 9 17 5 9 - - 0.0
15/04:30am 8.7 6.3 5.4 80 1.5 SW 7 11 4 6 - - 0.0
15/04:00am 8.6 6.2 5.4 80 1.5 SW 7 11 4 6 - - 0.0
15/03:30am 8.9 6.6 5.5 79 1.6 SSW 7 13 4 7 - - 0.0
15/03:00am 8.9 6.5 5.3 78 1.6 SW 7 15 4 8 - - 0.0
15/02:30am 9.0 6.6 5.2 77 1.7 SW 7 15 4 8 - - 0.0
15/02:00am 8.7 6.2 4.9 77 1.7 SW 7 13 4 7 - - 0.0
15/01:30am 8.9 6.4 4.9 76 1.8 SSW 7 13 4 7 - - 0.0
15/01:00am 8.9 6.4 4.9 76 1.8 SSW 7 11 4 6 - - 0.0
15/12:30am 9.3 6.8 4.9 74 2.0 SSW 7 11 4 6 - - 0.0
15/12:00am 9.2 6.7 4.8 74 2.0 SSW 7 13 4 7 - - 0.0
 
Date/Time
EST
Temp
°C
App
Temp
°C
Dew
Point
°C
Rel
Hum
%
Delta-T
°C
Wind Press
QNH
hPa
Press
MSL
hPa
Rain since
9am
mm
Dir  Spd
km/h
Gust
km/h
Spd
kts
Gust
kts
14/11:30pm 9.1 6.6 4.9 75 1.9 SSW 7 11 4 6 - - 0.0
14/11:00pm 8.4 6.1 4.8 78 1.6 SSW 6 7 3 4 - - 0.0
14/10:30pm 8.0 5.5 4.6 79 1.5 S 7 9 4 5 - - 0.0
14/10:00pm 8.2 5.9 4.6 78 1.6 S 6 9 3 5 - - 0.0
14/09:30pm 8.5 6.1 4.5 76 1.8 S 6 9 3 5 - - 0.0
14/09:00pm 8.9 6.4 4.7 75 1.9 S 7 9 4 5 - - 0.0
14/08:30pm 9.2 6.7 4.8 74 2.0 S 7 11 4 6 - - 0.0
14/08:00pm 10.3 8.0 4.9 69 2.5 S 6 7 3 4 - - 0.0
14/07:30pm 11.1 8.2 4.8 65 2.9 SW 9 17 5 9 - - 0.0
14/07:00pm 10.8 8.0 5.3 69 2.5 SW 9 13 5 7 - - 0.0
14/06:30pm 10.2 7.9 5.8 74 2.0 SSW 7 9 4 5 - - 0.0
14/06:00pm 11.0 10.0 5.7 70 2.5 CALM 0 4 0 2 - - 0.0
14/05:30pm 12.2 10.6 6.3 67 2.8 S 4 4 2 2 - - 0.0
14/05:00pm 12.8 11.2 6.4 65 3.1 SSW 4 6 2 3 - - 0.0
14/04:30pm 14.9 12.7 5.4 53 4.5 W 6 7 3 4 - - 0.0
14/04:00pm 16.9 15.2 5.8 48 5.4 WSW 4 7 2 4 - - 0.0
14/03:30pm 16.7 15.3 5.6 48 5.4 WSW 2 4 1 2 - - 0.0
14/03:00pm 17.5 16.2 5.8 46 5.7 NW 2 4 1 2 - - 0.0
14/02:30pm 17.9 15.4 4.5 41 6.4 NW 7 15 4 8 - - 0.0
14/02:00pm 18.8 15.9 4.6 39 6.9 WNW 9 17 5 9 - - 0.0
14/01:30pm 18.4 15.9 4.9 41 6.6 W 7 11 4 6 - - 0.0
14/01:00pm 18.0 15.9 5.6 44 6.1 W 6 15 3 8 - - 0.0
14/12:30pm 17.6 15.3 5.5 45 5.9 W 7 15 4 8 - - 0.0
14/12:00pm 16.3 12.6 4.7 46 5.5 SW 13 22 7 12 - - 0.0
14/11:30am 16.4 14.2 6.0 50 5.1 WSW 7 17 4 9 - - 0.0
14/11:00am 15.2 12.1 5.4 52 4.7 WSW 11 19 6 10 - - 0.0
14/10:30am 14.5 11.7 5.3 54 4.4 SW 9 17 5 9 - - 0.0
14/10:00am 13.0 10.1 4.7 57 3.8 SW 9 22 5 12 - - 0.0
14/09:30am 12.1 9.6 4.8 61 3.4 WSW 7 13 4 7 - - 0.0
14/09:00am 10.8 8.2 4.3 64 2.9 SW 7 13 4 7 - - 0.0
14/08:30am 10.8 8.2 4.3 64 2.9 SW 7 13 4 7 - - 0.0
14/08:00am 9.8 7.2 4.0 67 2.6 SW 7 17 4 9 - - 0.0
14/07:30am 9.0 6.2 3.4 68 2.4 SSW 7 11 4 6 - - 0.0
14/07:00am 8.4 5.6 3.3 70 2.2 SW 7 9 4 5 - - 0.0
14/06:30am 8.9 6.1 3.3 68 2.4 SSW 7 13 4 7 - - 0.0
14/06:00am 8.6 5.8 3.4 70 2.3 SSW 7 11 4 6 - - 0.0
14/05:30am 8.5 5.4 3.6 71 2.1 SW 9 17 5 9 - - 0.0
14/05:00am 8.3 5.7 3.2 70 2.2 SW 6 9 3 5 - - 0.0
14/04:30am 9.1 5.9 3.3 67 2.5 SSW 9 13 5 7 - - 0.0
14/04:00am 9.5 6.4 3.5 66 2.6 SW 9 15 5 8 - - 0.0
14/03:30am 9.7 6.6 3.4 65 2.8 SW 9 13 5 7 - - 0.0
14/03:00am 9.9 6.4 3.6 65 2.8 SW 11 17 6 9 - - 0.0
14/02:30am 9.7 6.6 3.7 66 2.6 SW 9 17 5 9 - - 0.0
14/02:00am 9.7 7.0 3.7 66 2.6 SW 7 11 4 6 - - 0.0
14/01:30am 9.8 7.2 4.2 68 2.5 SW 7 15 4 8 - - 0.0
14/01:00am 9.2 6.4 5.0 75 1.9 SW 9 13 5 7 - - 0.0
14/12:30am 9.6 7.3 5.6 76 1.8 SW 7 9 4 5 - - 0.0
14/12:00am 10.5 8.3 5.5 71 2.3 SW 6 7 3 4 - - 0.0
 
Date/Time
EST
Temp
°C
App
Temp
°C
Dew
Point
°C
Rel
Hum
%
Delta-T
°C
Wind Press
QNH
hPa
Press
MSL
hPa
Rain since
9am
mm
Dir  Spd
km/h
Gust
km/h
Spd
kts
Gust
kts
13/11:30pm 11.6 9.8 5.3 65 2.9 SW 4 6 2 3 - - 0.0
13/11:00pm 12.1 9.8 5.9 66 2.9 SW 7 13 4 7 - - 0.0
13/10:30pm 12.7 10.1 6.1 64 3.1 WSW 9 19 5 10 - - 0.0
13/10:00pm 12.6 9.8 6.9 68 2.8 SW 11 20 6 11 - - 0.0
13/09:30pm 12.8 10.4 7.0 68 2.8 SW 9 15 5 8 - - 0.0
13/09:00pm 13.2 10.8 7.2 67 2.9 WSW 9 13 5 7 - - 0.0

Latest Capital City Observations: Canberra | Sydney | Melbourne | Brisbane | Adelaide | Perth | Hobart | Darwin

Other formats

Comma delimited format used in spreadsheet applications
http://www.bom.gov.au/fwo/IDN60901/IDN60901.95684.axf

JavaScript Object Notation format (JSON) in row-major order
http://www.bom.gov.au/fwo/IDN60901/IDN60901.95684.json

Data quality

Most of these data are generated automatically and are frequently updated. Quality checks on data are not normally performed. It is possible for incorrect values to appear. Refer to information at About Latest Weather Observations and please check the disclaimer before using these data.